Time;durP1;ratioP1;P1;durP2;ratioP2;P2;SDS_P1;SDS_P2;PMS_P1;PMS_P2;Temp;Humidity;BMP_temperature;BMP_pressure;BME280_temperature;BME280_humidity;BME280_pressure;Samples;Min_cycle;Max_cycle;Signal;HPM_P1;HPM_P2
2022/08/02 00:01:51;;;;;;;7.63;3.78;;;17.40;99.90;;;;;;4670140;30;20049;-83
2022/08/02 00:04:17;;;;;;;9.45;4.13;;;17.40;99.90;;;;;;4668758;30;20088;-82
2022/08/02 00:06:43;;;;;;;8.77;3.65;;;17.40;99.90;;;;;;4668600;30;20530;-82
2022/08/02 00:09:09;;;;;;;9.10;3.85;;;17.30;99.90;;;;;;4669903;30;20038;-81
2022/08/02 00:11:35;;;;;;;9.30;4.07;;;17.30;99.90;;;;;;4670087;30;20534;-81
2022/08/02 00:14:01;;;;;;;8.25;4.15;;;15.80;99.90;;;;;;4669770;30;20302;-81
2022/08/02 00:16:27;;;;;;;9.15;4.38;;;17.20;99.90;;;;;;4669922;30;20050;-81
2022/08/02 00:18:53;;;;;;;6.85;4.03;;;17.10;99.90;;;;;;4668342;30;20267;-81
2022/08/02 00:21:18;;;;;;;7.10;3.78;;;17.10;99.90;;;;;;4669717;30;20578;-81
2022/08/02 00:23:44;;;;;;;7.53;3.83;;;17.10;99.90;;;;;;4669420;30;20041;-82
2022/08/02 00:26:10;;;;;;;9.20;3.92;;;17.10;99.90;;;;;;4669520;30;20046;-82
2022/08/02 00:28:36;;;;;;;8.27;4.18;;;17.10;99.90;;;;;;4669854;30;20798;-82
2022/08/02 00:31:02;;;;;;;9.02;3.72;;;17.10;99.90;;;;;;4669858;30;20315;-81
2022/08/02 00:33:28;;;;;;;5.88;3.60;;;17.10;99.90;;;;;;4669995;30;20078;-82
2022/08/02 00:35:53;;;;;;;9.23;4.00;;;17.10;99.90;;;;;;4667736;30;20050;-81
2022/08/02 00:38:19;;;;;;;9.45;4.32;;;17.10;99.90;;;;;;4668541;30;20038;-81
2022/08/02 00:40:50;;;;;;;9.15;4.45;;;17.10;99.90;;;;;;4669341;30;20166;-84
2022/08/02 00:43:16;;;;;;;8.75;4.35;;;17.00;99.90;;;;;;4669640;30;20037;-82
2022/08/02 00:45:43;;;;;;;9.25;3.67;;;17.00;99.90;;;;;;4669818;30;20042;-83
2022/08/02 00:48:10;;;;;;;9.13;4.43;;;17.00;99.90;;;;;;4669431;30;20037;-82
2022/08/02 00:50:37;;;;;;;7.47;4.30;;;16.90;99.90;;;;;;4669526;30;20228;-81
2022/08/02 00:53:03;;;;;;;7.75;4.00;;;16.90;99.90;;;;;;4669833;30;20046;-82
2022/08/02 00:55:30;;;;;;;7.85;3.92;;;16.90;99.90;;;;;;4669402;30;20077;-81
2022/08/02 00:57:56;;;;;;;10.23;4.32;;;16.90;99.90;;;;;;4672019;30;20124;-81
2022/08/02 01:00:22;;;;;;;8.98;3.67;;;16.90;99.90;;;;;;4685432;30;20046;-82
2022/08/02 01:02:48;;;;;;;9.80;3.83;;;16.90;99.90;;;;;;4687400;30;20057;-82
2022/08/02 01:05:14;;;;;;;9.48;4.15;;;16.90;99.90;;;;;;4688470;30;20310;-83
2022/08/02 01:07:39;;;;;;;8.18;4.50;;;16.80;99.90;;;;;;4689521;30;20160;-84
2022/08/02 01:10:07;;;;;;;7.40;4.05;;;16.70;99.90;;;;;;4682044;30;20042;-82
2022/08/02 01:12:32;;;;;;;8.18;4.28;;;16.50;99.90;;;;;;4675066;30;20072;-81
2022/08/02 01:15:03;;;;;;;6.80;3.90;;;16.70;99.90;;;;;;4675313;30;20065;-82
2022/08/02 01:17:37;;;;;;;8.98;4.00;;;16.60;99.90;;;;;;4674321;30;20267;-82
2022/08/02 01:20:48;;;;;;;9.20;4.30;;;16.60;99.90;;;;;;4674816;30;20042;-85
2022/08/02 01:23:35;;;;;;;10.25;3.95;;;16.50;99.90;;;;;;4673040;30;20538;-84
2022/08/02 01:26:19;;;;;;;8.15;4.18;;;16.50;99.90;;;;;;4670958;30;20042;-85
2022/08/02 01:28:52;;;;;;;9.82;4.65;;;16.40;99.90;;;;;;4671454;30;20321;-84
2022/08/02 01:31:33;;;;;;;8.40;4.00;;;16.30;99.90;;;;;;4669424;30;20045;-80
2022/08/02 01:34:27;;;;;;;10.30;4.68;;;16.30;99.90;;;;;;4667656;30;20530;-83
2022/08/02 01:36:56;;;;;;;;;;;16.20;99.90;;;;;;4669654;30;20427;-83
2022/08/02 01:39:26;;;;;;;7.47;4.22;;;16.20;99.90;;;;;;4668745;30;20168;-80
2022/08/02 01:41:55;;;;;;;10.55;4.50;;;16.20;99.90;;;;;;4667324;30;20499;-82
2022/08/02 01:44:22;;;;;;;9.20;3.75;;;16.20;99.90;;;;;;4668198;30;20042;-81
2022/08/02 01:46:49;;;;;;;6.00;3.60;;;16.20;99.90;;;;;;4667040;30;20398;-83
2022/08/02 01:49:19;;;;;;;9.48;4.50;;;16.20;99.90;;;;;;4668460;30;20042;-80
2022/08/02 01:54:33;;;;;;;9.90;4.40;;;16.90;99.90;;;;;;4668661;30;20589;-81
2022/08/02 01:57:04;;;;;;;7.50;4.07;;;16.20;99.90;;;;;;4668194;30;20042;-81
2022/08/02 01:59:31;;;;;;;8.30;4.60;;;16.20;99.90;;;;;;4668240;30;20080;-81
2022/08/02 02:02:00;;;;;;;9.23;4.47;;;16.20;99.90;;;;;;4668075;30;20113;-80
2022/08/02 02:04:29;;;;;;;8.25;3.53;;;16.10;99.90;;;;;;4667374;30;20238;-81
2022/08/02 02:06:56;;;;;;;9.60;4.65;;;16.10;99.90;;;;;;4668456;30;20034;-81
2022/08/02 02:09:27;;;;;;;7.78;4.20;;;16.10;99.90;;;;;;4666773;30;20431;-82
2022/08/02 02:11:55;;;;;;;10.23;4.20;;;16.00;99.90;;;;;;4666772;30;20141;-83
2022/08/02 02:14:21;;;;;;;9.55;4.60;;;16.00;99.90;;;;;;4668205;30;20483;-83
2022/08/02 02:16:48;;;;;;;8.38;3.97;;;16.00;99.90;;;;;;4668162;30;20049;-84
2022/08/02 02:19:19;;;;;;;8.68;4.43;;;16.00;99.90;;;;;;4668255;30;20034;-82
2022/08/02 02:21:44;;;;;;;9.00;4.18;;;14.00;99.90;;;;;;4668558;30;20354;-83
2022/08/02 02:24:10;;;;;;;8.48;4.43;;;16.00;99.90;;;;;;4668149;30;20101;-83
2022/08/02 02:26:39;;;;;;;8.02;4.35;;;16.00;99.90;;;;;;4667739;30;20133;-81
2022/08/02 02:29:08;;;;;;;7.78;3.85;;;15.90;99.90;;;;;;4668164;30;20045;-81
2022/08/02 02:31:37;;;;;;;8.02;4.38;;;16.00;99.90;;;;;;4667817;30;20483;-81
2022/08/02 02:34:13;;;;;;;7.50;3.70;;;16.00;99.90;;;;;;4668528;30;20034;-86
2022/08/02 02:36:44;;;;;;;10.73;4.57;;;16.00;99.90;;;;;;4666626;30;20104;-82
2022/08/02 02:39:13;;;;;;;11.93;4.60;;;16.00;99.90;;;;;;4668319;30;20228;-84
2022/08/02 02:41:39;;;;;;;9.27;4.38;;;16.00;99.90;;;;;;4668562;30;20060;-82
2022/08/02 02:44:08;;;;;;;7.10;4.13;;;15.90;99.90;;;;;;4668084;30;20038;-82
2022/08/02 02:46:35;;;;;;;8.23;4.28;;;16.00;99.90;;;;;;4670902;30;20038;-86
2022/08/02 02:49:01;;;;;;;7.68;4.60;;;15.90;99.90;;;;;;4671374;30;20038;-83
2022/08/02 02:51:31;;;;;;;7.68;3.90;;;15.30;99.90;;;;;;4671486;30;20069;-81
2022/08/02 02:53:58;;;;;;;8.90;4.13;;;15.90;99.90;;;;;;4671252;30;20053;-84
2022/08/02 02:56:24;;;;;;;6.72;3.80;;;15.90;99.90;;;;;;4669703;30;20259;-84
2022/08/02 02:58:53;;;;;;;10.30;5.22;;;18.50;99.90;;;;;;4670972;30;20042;-82
2022/08/02 03:01:32;;;;;;;11.73;4.22;;;15.70;99.90;;;;;;4670646;30;20425;-84
2022/08/02 03:04:07;;;;;;;8.80;4.80;;;15.70;99.90;;;;;;4670755;30;20117;-84
2022/08/02 03:06:35;;;;;;;7.82;4.03;;;15.70;99.90;;;;;;4669571;30;20038;-82
2022/08/02 03:09:01;;;;;;;6.82;3.95;;;17.40;99.90;;;;;;4670925;30;20042;-81
2022/08/02 03:11:30;;;;;;;8.73;4.70;;;15.60;99.90;;;;;;4671005;30;20442;-81
2022/08/02 03:13:58;;;;;;;7.78;4.50;;;15.70;99.90;;;;;;4668261;30;20046;-80
2022/08/02 03:16:28;;;;;;;8.88;4.38;;;15.70;99.90;;;;;;4670251;30;20564;-83
2022/08/02 03:18:56;;;;;;;8.10;4.38;;;17.90;99.90;;;;;;4669560;30;20218;-83
2022/08/02 03:21:22;;;;;;;8.70;4.78;;;15.70;99.90;;;;;;4670416;30;20125;-81
2022/08/02 03:23:48;;;;;;;8.55;4.28;;;15.70;99.90;;;;;;4670684;30;20038;-83
2022/08/02 03:26:17;;;;;;;9.13;4.00;;;15.70;99.90;;;;;;4670588;30;20077;-81
2022/08/02 03:28:43;;;;;;;10.18;4.50;;;15.60;99.90;;;;;;4668915;30;20053;-82
2022/08/02 03:31:09;;;;;;;10.43;5.10;;;15.70;99.90;;;;;;4670543;30;20480;-83
2022/08/02 03:33:36;;;;;;;8.93;5.05;;;13.80;99.90;;;;;;4670264;30;20065;-82
2022/08/02 03:36:09;;;;;;;8.43;4.82;;;15.60;99.90;;;;;;4670003;30;20046;-83
2022/08/02 03:38:36;;;;;;;9.98;5.43;;;15.50;99.90;;;;;;4670455;30;20136;-83
2022/08/02 03:41:04;;;;;;;10.73;5.25;;;15.50;99.90;;;;;;4670462;30;20191;-81
2022/08/02 03:43:31;;;;;;;9.55;5.20;;;15.50;99.90;;;;;;4670628;30;20495;-84
2022/08/02 03:45:58;;;;;;;9.35;4.32;;;15.50;99.90;;;;;;4669950;30;20060;-82
2022/08/02 03:48:26;;;;;;;7.70;4.30;;;15.60;99.90;;;;;;4670332;30;20186;-82
2022/08/02 03:50:53;;;;;;;8.55;4.53;;;15.50;99.90;;;;;;4670207;30;20342;-81
2022/08/02 03:53:19;;;;;;;8.10;4.60;;;15.50;99.90;;;;;;4670167;30;20042;-84
2022/08/02 03:55:46;;;;;;;8.60;4.90;;;15.50;99.90;;;;;;4670084;30;20092;-82
2022/08/02 03:58:23;;;;;;;8.30;4.70;;;15.60;99.90;;;;;;4668493;30;20050;-83
2022/08/02 04:00:49;;;;;;;9.10;4.90;;;15.70;99.90;;;;;;4670608;30;20045;-82
2022/08/02 04:03:14;;;;;;;7.20;4.25;;;15.60;99.90;;;;;;4669244;30;20227;-83
2022/08/02 04:05:40;;;;;;;10.15;5.28;;;15.60;99.90;;;;;;4670666;30;20570;-84
2022/08/02 04:08:07;;;;;;;15.90;9.30;;;15.70;99.90;;;;;;4669977;30;20542;-80
2022/08/02 04:13:32;;;;;;;14.07;7.03;;;14.30;99.90;;;;;;4666728;30;20586;-81
2022/08/02 04:16:05;;;;;;;9.82;5.57;;;15.70;99.90;;;;;;4666415;30;20053;-84
2022/08/02 04:18:44;;;;;;;11.57;6.07;;;15.70;99.90;;;;;;4666909;30;20045;-84
2022/08/02 04:21:14;;;;;;;9.07;4.22;;;15.80;99.90;;;;;;4666614;30;20343;-82
2022/08/02 04:23:42;;;;;;;8.15;4.60;;;15.70;99.90;;;;;;4666485;30;20038;-83
2022/08/02 04:26:09;;;;;;;9.50;4.28;;;15.70;99.90;;;;;;4666425;30;20062;-84
2022/08/02 04:28:36;;;;;;;9.80;4.50;;;15.70;99.90;;;;;;4666537;30;20118;-85
2022/08/02 04:31:02;;;;;;;8.93;4.50;;;15.70;99.90;;;;;;4666086;30;20522;-82
2022/08/02 04:33:29;;;;;;;8.70;4.55;;;15.70;99.90;;;;;;4666080;30;20049;-83
2022/08/02 04:35:57;;;;;;;8.20;4.55;;;15.80;99.90;;;;;;4666214;30;20430;-82
2022/08/02 04:38:23;;;;;;;9.38;4.32;;;15.90;99.90;;;;;;4666319;30;20442;-82
2022/08/02 04:40:54;;;;;;;10.00;4.57;;;15.90;99.90;;;;;;4665835;30;20109;-81
2022/08/02 04:43:21;;;;;;;9.82;4.53;;;15.90;99.90;;;;;;4666458;30;20042;-81
2022/08/02 04:45:54;;;;;;;10.18;4.57;;;15.80;99.90;;;;;;4667369;30;20112;-81
2022/08/02 04:48:20;;;;;;;11.18;5.90;;;15.80;99.90;;;;;;4666155;30;20038;-81
2022/08/02 04:50:47;;;;;;;13.38;6.82;;;15.80;99.90;;;;;;4668737;30;20164;-81
2022/08/02 04:53:13;;;;;;;17.38;8.68;;;15.90;99.90;;;;;;4667832;30;20504;-81
2022/08/02 04:55:39;;;;;;;20.95;9.77;;;16.10;99.90;;;;;;4668676;30;20142;-83
2022/08/02 04:58:04;;;;;;;17.67;9.00;;;16.20;99.90;;;;;;4668848;30;20046;-83
2022/08/02 05:00:31;;;;;;;10.75;6.53;;;16.20;99.90;;;;;;4668980;30;20037;-82
2022/08/02 05:02:58;;;;;;;9.13;4.72;;;16.30;99.90;;;;;;4669089;30;20521;-83
2022/08/02 05:05:25;;;;;;;9.95;4.80;;;16.30;99.90;;;;;;4668994;30;20046;-82
2022/08/02 05:07:51;;;;;;;9.68;4.97;;;16.40;99.90;;;;;;4667384;30;20458;-82
2022/08/02 05:10:17;;;;;;;10.02;4.65;;;16.80;99.90;;;;;;4668401;30;20342;-82
2022/08/02 05:12:43;;;;;;;7.18;4.22;;;16.50;99.90;;;;;;4669042;30;20379;-83
2022/08/02 05:15:11;;;;;;;14.77;4.32;;;16.50;99.90;;;;;;4668529;30;20073;-81
2022/08/02 05:17:37;;;;;;;7.45;3.90;;;16.60;99.90;;;;;;4668383;30;20042;-84
2022/08/02 05:20:04;;;;;;;8.75;5.40;;;16.60;99.90;;;;;;4668335;30;20057;-82
2022/08/02 05:22:30;;;;;;;6.28;4.00;;;16.60;99.90;;;;;;4667397;30;20283;-82
2022/08/02 05:24:56;;;;;;;9.75;4.40;;;16.70;99.90;;;;;;4668360;30;20145;-81
2022/08/02 05:27:22;;;;;;;8.60;4.28;;;16.80;99.90;;;;;;4668471;30;20045;-82
2022/08/02 05:29:50;;;;;;;7.97;4.65;;;16.90;99.90;;;;;;4667037;30;20045;-81
2022/08/02 05:32:19;;;;;;;8.60;4.50;;;17.00;99.90;;;;;;4667067;30;20132;-83
2022/08/02 05:34:45;;;;;;;9.35;4.28;;;17.10;99.90;;;;;;4668214;30;20038;-82
2022/08/02 05:37:11;;;;;;;8.10;4.93;;;17.20;99.90;;;;;;4668404;30;20049;-82
2022/08/02 05:39:36;;;;;;;7.63;4.43;;;17.30;99.90;;;;;;4668401;30;20499;-81
2022/08/02 05:42:02;;;;;;;7.07;4.07;;;17.40;99.90;;;;;;4668319;30;20158;-84
2022/08/02 05:44:28;;;;;;;10.85;4.90;;;17.50;99.90;;;;;;4668393;30;20041;-83
2022/08/02 05:46:54;;;;;;;8.90;4.68;;;17.70;99.90;;;;;;4668218;30;20038;-84
2022/08/02 05:49:20;;;;;;;8.50;4.30;;;17.80;99.90;;;;;;4668282;30;20109;-81
2022/08/02 05:52:03;;;;;;;9.73;4.90;;;17.80;99.90;;;;;;4668042;30;20039;-84
2022/08/02 05:54:35;;;;;;;10.27;5.03;;;18.00;99.90;;;;;;4668168;30;20317;-84
2022/08/02 05:57:06;;;;;;;10.25;4.80;;;18.00;99.90;;;;;;4668051;30;20053;-83
2022/08/02 05:59:51;;;;;;;9.52;4.85;;;18.10;99.90;;;;;;4666645;30;20054;-83
2022/08/02 06:02:29;;;;;;;9.68;4.95;;;18.20;99.90;;;;;;4666643;30;20664;-83
2022/08/02 06:05:02;;;;;;;7.90;4.68;;;18.40;99.90;;;;;;4667807;30;20342;-82
2022/08/02 06:07:29;;;;;;;8.40;4.65;;;18.50;99.90;;;;;;4668044;30;20045;-82
2022/08/02 06:09:56;;;;;;;14.65;5.38;;;18.60;99.90;;;;;;4668054;30;20045;-81
2022/08/02 06:12:27;;;;;;;13.55;5.53;;;18.80;99.90;;;;;;4666273;30;20065;-82
2022/08/02 06:14:54;;;;;;;11.70;5.45;;;18.80;99.90;;;;;;4666101;30;20112;-81
2022/08/02 06:17:20;;;;;;;8.15;4.30;;;18.90;99.90;;;;;;4667697;30;20034;-83
2022/08/02 06:19:47;;;;;;;9.20;4.60;;;19.10;99.90;;;;;;4666537;30;20396;-80
2022/08/02 06:22:15;;;;;;;9.02;5.45;;;19.20;99.90;;;;;;4671382;30;20045;-82
2022/08/02 06:24:44;;;;;;;9.30;5.35;;;19.30;99.90;;;;;;4670776;30;20127;-83
2022/08/02 06:27:14;;;;;;;8.82;4.90;;;19.40;99.90;;;;;;4671279;30;20531;-82
2022/08/02 06:29:43;;;;;;;11.00;6.10;;;19.50;99.90;;;;;;4670975;30;20041;-83
2022/08/02 06:32:09;;;;;;;11.00;6.28;;;19.60;99.90;;;;;;4671013;30;20530;-83
2022/08/02 06:34:39;;;;;;;12.85;7.00;;;19.80;99.90;;;;;;4671059;30;20060;-82
2022/08/02 06:37:25;;;;;;;12.48;6.75;;;19.90;99.90;;;;;;4669408;30;20337;-82
2022/08/02 06:40:17;;;;;;;10.52;6.40;;;20.00;99.90;;;;;;4669288;30;20523;-81
2022/08/02 06:42:50;;;;;;;10.65;6.05;;;20.70;99.90;;;;;;4661037;30;20054;-82
2022/08/02 06:45:16;;;;;;;11.77;6.50;;;20.30;99.70;;;;;;4670890;30;20038;-82
2022/08/02 06:47:42;;;;;;;14.05;6.40;;;20.20;99.60;;;;;;4670869;30;20050;-82
2022/08/02 06:50:09;;;;;;;11.23;5.95;;;20.30;99.50;;;;;;4670797;30;20247;-82
2022/08/02 06:52:35;;;;;;;10.23;5.75;;;20.50;99.40;;;;;;4670768;30;20125;-81
2022/08/02 06:55:03;;;;;;;11.60;5.97;;;20.60;99.10;;;;;;4668968;30;20103;-82
2022/08/02 06:57:30;;;;;;;12.82;6.32;;;20.70;98.90;;;;;;4669369;30;20351;-82
2022/08/02 06:59:57;;;;;;;8.95;5.32;;;;;;;;;;4669756;30;20145;-82
2022/08/02 07:02:23;;;;;;;10.20;5.70;;;21.00;98.40;;;;;;4670669;30;20050;-83
2022/08/02 07:04:49;;;;;;;11.70;5.97;;;21.00;98.40;;;;;;4669264;30;20145;-81
2022/08/02 07:07:15;;;;;;;9.75;6.13;;;21.00;98.30;;;;;;4670708;30;20507;-81
2022/08/02 07:09:41;;;;;;;9.18;5.50;;;21.20;98.10;;;;;;4670321;30;20053;-84
2022/08/02 07:12:07;;;;;;;8.95;5.28;;;21.40;98.40;;;;;;4670636;30;20046;-83
2022/08/02 07:14:33;;;;;;;9.52;5.45;;;20.70;97.40;;;;;;4669016;30;20133;-84
2022/08/02 07:16:59;;;;;;;10.25;5.38;;;21.60;97.50;;;;;;4670188;30;20399;-83
2022/08/02 07:19:25;;;;;;;10.85;5.72;;;21.60;97.20;;;;;;4669084;30;20243;-83
2022/08/02 07:21:50;;;;;;;9.40;5.07;;;21.70;97.10;;;;;;4670434;30;20274;-85
2022/08/02 07:24:16;;;;;;;11.50;4.75;;;21.90;96.80;;;;;;4670481;30;20064;-82
2022/08/02 07:26:42;;;;;;;8.15;4.25;;;21.80;96.50;;;;;;4670236;30;20060;-82
2022/08/02 07:29:08;;;;;;;9.52;4.70;;;21.80;96.60;;;;;;4670802;30;20082;-83
2022/08/02 07:31:34;;;;;;;8.85;5.00;;;21.90;96.70;;;;;;4669068;30;20402;-83
2022/08/02 07:33:59;;;;;;;12.75;5.22;;;21.90;96.70;;;;;;4670317;30;20438;-82
2022/08/02 07:36:25;;;;;;;10.05;5.70;;;22.00;96.60;;;;;;4669897;30;20100;-83
2022/08/02 07:38:51;;;;;;;7.30;4.82;;;22.00;96.50;;;;;;4670015;30;20585;-80
2022/08/02 07:41:17;;;;;;;9.35;5.72;;;22.00;96.40;;;;;;4670126;30;20034;-86
2022/08/02 07:43:43;;;;;;;8.90;5.50;;;22.20;96.50;;;;;;4670124;30;20053;-83
2022/08/02 07:46:09;;;;;;;10.13;5.13;;;22.30;96.20;;;;;;4669660;30;20038;-81
2022/08/02 07:48:34;;;;;;;8.35;4.82;;;22.40;95.70;;;;;;4669129;30;20037;-82
2022/08/02 07:51:00;;;;;;;8.70;4.65;;;22.30;96.00;;;;;;4669982;30;20042;-82
2022/08/02 07:53:26;;;;;;;8.93;5.15;;;22.40;95.90;;;;;;4669903;30;20164;-82
2022/08/02 07:55:52;;;;;;;7.93;4.95;;;22.50;95.60;;;;;;4669630;30;20042;-83
2022/08/02 07:58:18;;;;;;;7.88;4.65;;;22.50;95.30;;;;;;4669455;30;20629;-82
2022/08/02 08:00:44;;;;;;;8.75;4.95;;;22.60;95.20;;;;;;4669733;30;20435;-83
2022/08/02 08:03:10;;;;;;;10.35;5.93;;;22.70;94.80;;;;;;4669611;30;20442;-84
2022/08/02 08:05:35;;;;;;;10.82;5.65;;;22.70;95.20;;;;;;4669680;30;20046;-83
2022/08/02 08:08:01;;;;;;;13.07;6.80;;;22.90;95.10;;;;;;4669926;30;20044;-82
2022/08/02 08:10:27;;;;;;;9.65;6.10;;;22.90;95.10;;;;;;4669543;30;20420;-83
2022/08/02 08:12:54;;;;;;;11.60;5.80;;;23.00;95.10;;;;;;4668159;30;20042;-82
2022/08/02 08:15:20;;;;;;;8.85;5.20;;;23.00;94.90;;;;;;4667917;30;20070;-81
2022/08/02 08:17:46;;;;;;;10.45;5.43;;;23.10;94.70;;;;;;4669401;30;20077;-83
2022/08/02 08:20:12;;;;;;;9.30;5.45;;;23.10;94.60;;;;;;4669231;30;20069;-83
2022/08/02 08:22:38;;;;;;;9.77;5.13;;;23.20;94.60;;;;;;4669249;30;20311;-83
2022/08/02 08:25:04;;;;;;;8.85;5.10;;;23.40;94.60;;;;;;4669075;30;20626;-85
2022/08/02 08:27:30;;;;;;;9.50;5.57;;;23.40;94.40;;;;;;4667827;30;20100;-84
2022/08/02 08:29:56;;;;;;;10.95;5.65;;;23.50;94.60;;;;;;4669114;30;20046;-85
2022/08/02 08:32:22;;;;;;;12.82;6.07;;;23.60;94.30;;;;;;4669157;30;20045;-85
2022/08/02 08:34:50;;;;;;;12.48;5.75;;;23.70;94.30;;;;;;4667424;30;20053;-82
2022/08/02 08:37:16;;;;;;;13.35;6.90;;;24.10;93.90;;;;;;4669187;30;20058;-82
2022/08/02 08:39:42;;;;;;;8.70;5.28;;;24.50;93.30;;;;;;4667247;30;20038;-85
2022/08/02 08:42:08;;;;;;;11.07;6.28;;;24.60;93.30;;;;;;4668986;30;20129;-82
2022/08/02 08:44:35;;;;;;;13.05;6.07;;;24.90;92.80;;;;;;4667661;30;20113;-83
2022/08/02 08:47:03;;;;;;;9.50;5.50;;;24.70;92.60;;;;;;4669009;30;20480;-82
2022/08/02 08:49:39;;;;;;;12.93;6.13;;;24.70;92.60;;;;;;4667223;30;20435;-84
2022/08/02 08:52:06;;;;;;;12.60;5.30;;;24.70;92.70;;;;;;4668865;30;20612;-83
2022/08/02 08:54:34;;;;;;;10.77;6.05;;;24.70;92.80;;;;;;4668482;30;20042;-82
2022/08/02 08:57:03;;;;;;;12.70;5.93;;;24.70;92.60;;;;;;4667358;30;20569;-83
2022/08/02 08:59:29;;;;;;;8.57;5.53;;;24.90;92.10;;;;;;4668708;30;20057;-84
2022/08/02 09:01:56;;;;;;;10.02;6.20;;;25.20;92.20;;;;;;4668666;30;20077;-82
2022/08/02 09:04:21;;;;;;;12.23;7.15;;;25.50;91.60;;;;;;4667459;30;20125;-82
2022/08/02 09:06:47;;;;;;;13.45;6.20;;;25.40;91.60;;;;;;4667069;30;20129;-83
2022/08/02 09:09:13;;;;;;;9.55;5.93;;;25.60;91.00;;;;;;4668441;30;20129;-82
2022/08/02 09:11:39;;;;;;;9.98;5.50;;;25.90;91.10;;;;;;4668551;30;20038;-83
2022/08/02 09:14:05;;;;;;;9.55;5.28;;;26.30;90.40;;;;;;4668386;30;20042;-82
2022/08/02 09:16:41;;;;;;;12.23;6.20;;;26.40;89.10;;;;;;4668189;30;20081;-84
2022/08/02 09:19:20;;;;;;;10.68;5.63;;;26.60;88.90;;;;;;4668204;30;20061;-83
2022/08/02 09:21:48;;;;;;;10.95;5.75;;;26.60;89.20;;;;;;4668158;30;20064;-84
2022/08/02 09:24:16;;;;;;;8.73;4.72;;;26.70;87.70;;;;;;4667807;30;20038;-85
2022/08/02 09:26:42;;;;;;;11.05;5.55;;;26.90;87.40;;;;;;4666726;30;20288;-83
2022/08/02 09:29:08;;;;;;;9.93;5.47;;;26.90;87.60;;;;;;4668434;30;20350;-83
2022/08/02 09:31:34;;;;;;;7.53;4.38;;;26.90;86.80;;;;;;4669507;30;20238;-82
2022/08/02 09:34:00;;;;;;;9.25;5.47;;;27.00;85.50;;;;;;4667913;30;20038;-82
2022/08/02 09:36:35;;;;;;;9.75;4.65;;;27.10;85.50;;;;;;4668145;30;20124;-83
2022/08/02 09:39:04;;;;;;;7.53;4.43;;;27.10;85.60;;;;;;4666882;30;20231;-82
2022/08/02 09:41:32;;;;;;;12.52;4.68;;;27.00;85.20;;;;;;4668158;30;20049;-82
2022/08/02 09:43:59;;;;;;;9.68;5.18;;;26.80;85.00;;;;;;4666461;30;20234;-83
2022/08/02 09:46:31;;;;;;;9.05;4.10;;;25.70;85.20;;;;;;4668062;30;20034;-83
2022/08/02 09:48:59;;;;;;;9.48;4.32;;;26.50;86.20;;;;;;4668070;30;20365;-83
2022/08/02 09:51:30;;;;;;;8.13;4.15;;;26.70;86.70;;;;;;4666793;30;20046;-82
2022/08/02 09:54:01;;;;;;;7.78;4.20;;;27.10;84.40;;;;;;4667763;30;20034;-85
2022/08/02 09:56:38;;;;;;;7.00;3.50;;;27.20;82.80;;;;;;4667163;30;20096;-82
2022/08/02 09:59:07;;;;;;;7.85;3.67;;;27.20;82.20;;;;;;4667611;30;20123;-82
2022/08/02 10:01:34;;;;;;;8.88;4.00;;;27.30;82.10;;;;;;4667954;30;20100;-83
2022/08/02 10:04:05;;;;;;;6.35;3.40;;;27.30;80.80;;;;;;4668338;30;20373;-82
2022/08/02 10:06:32;;;;;;;7.50;3.67;;;27.40;79.10;;;;;;4666553;30;20061;-83
2022/08/02 10:08:58;;;;;;;5.38;2.97;;;27.50;77.60;;;;;;4674536;30;20049;-81
2022/08/02 10:11:26;;;;;;;5.50;2.97;;;27.80;76.40;;;;;;4684509;30;20040;-80
2022/08/02 10:13:53;;;;;;;6.47;2.80;;;28.50;76.20;;;;;;4686024;30;20057;-80
2022/08/02 10:16:24;;;;;;;6.90;3.05;;;28.80;73.90;;;;;;4686922;30;20054;-82
2022/08/02 10:18:53;;;;;;;6.07;3.10;;;28.50;74.00;;;;;;4688061;30;20034;-81
2022/08/02 10:21:28;;;;;;;5.75;3.00;;;28.50;74.20;;;;;;4676600;30;20068;-82
2022/08/02 10:24:02;;;;;;;7.82;3.78;;;28.50;74.10;;;;;;4671282;30;20481;-83
2022/08/02 10:26:29;;;;;;;6.60;3.15;;;28.70;74.40;;;;;;4670469;30;20052;-82
2022/08/02 10:28:55;;;;;;;6.72;3.47;;;28.50;75.80;;;;;;4671559;30;20034;-82
2022/08/02 10:31:32;;;;;;;7.07;3.17;;;28.20;77.30;;;;;;4669994;30;20463;-82
2022/08/02 10:34:00;;;;;;;6.80;3.22;;;27.10;74.40;;;;;;4668272;30;20034;-82
2022/08/02 10:36:32;;;;;;;7.70;3.20;;;26.80;73.80;;;;;;4668325;30;20145;-81
2022/08/02 10:39:00;;;;;;;2.58;1.80;;;28.50;73.30;;;;;;4668940;30;20060;-82
2022/08/02 10:41:51;;;;;;;4.57;2.55;;;28.60;71.50;;;;;;4667726;30;20053;-82
2022/08/02 10:44:31;;;;;;;5.35;2.40;;;29.10;69.10;;;;;;4669001;30;20042;-83
2022/08/02 10:47:18;;;;;;;4.95;2.70;;;28.90;68.60;;;;;;4668678;30;20443;-82
2022/08/02 10:49:55;;;;;;;5.03;2.38;;;29.70;69.40;;;;;;4668363;30;20042;-81
2022/08/02 10:52:24;;;;;;;5.50;2.67;;;28.50;67.00;;;;;;4668438;30;20121;-81
2022/08/02 10:54:58;;;;;;;4.65;2.40;;;27.60;67.50;;;;;;4667821;30;20042;-81
2022/08/02 10:57:32;;;;;;;6.63;2.40;;;28.60;68.00;;;;;;4667656;30;20060;-83
2022/08/02 11:00:24;;;;;;;5.03;2.13;;;28.70;67.50;;;;;;4666281;30;20570;-85
2022/08/02 11:02:50;;;;;;;3.40;1.52;;;29.30;68.40;;;;;;4666192;30;20052;-84
2022/08/02 11:05:26;;;;;;;3.30;1.33;;;30.60;57.50;;;;;;4667448;30;20034;-82
2022/08/02 11:07:52;;;;;;;2.25;1.40;;;29.90;57.70;;;;;;4670499;30;20438;-84
2022/08/02 11:10:32;;;;;;;4.97;2.10;;;30.90;58.40;;;;;;4669066;30;20140;-82
2022/08/02 11:12:57;;;;;;;5.15;2.00;;;30.30;59.70;;;;;;4669054;30;20042;-80
2022/08/02 11:15:23;;;;;;;4.68;2.40;;;29.00;59.50;;;;;;4670149;30;20553;-81
2022/08/02 11:17:54;;;;;;;3.42;1.50;;;29.70;61.40;;;;;;4670302;30;20126;-81
2022/08/02 11:20:21;;;;;;;4.18;1.40;;;29.40;59.40;;;;;;4670708;30;20046;-82
2022/08/02 11:22:50;;;;;;;5.00;1.67;;;29.60;59.10;;;;;;4670395;30;20034;-81
2022/08/02 11:25:24;;;;;;;4.22;1.30;;;29.90;58.50;;;;;;4670388;30;20038;-82
2022/08/02 11:28:08;;;;;;;3.80;1.92;;;30.50;58.10;;;;;;4670079;30;20595;-82
2022/08/02 11:30:35;;;;;;;3.97;1.30;;;30.90;57.20;;;;;;4668694;30;20080;-81
2022/08/02 11:33:01;;;;;;;4.80;1.80;;;30.90;56.20;;;;;;4670408;30;20042;-80
2022/08/02 11:35:38;;;;;;;3.72;1.48;;;31.20;56.10;;;;;;4668627;30;20054;-83
2022/08/02 11:38:16;;;;;;;3.00;1.55;;;31.60;54.60;;;;;;4668848;30;20038;-80
2022/08/02 11:40:43;;;;;;;2.72;1.50;;;32.10;54.10;;;;;;4669935;30;20056;-82
2022/08/02 11:43:22;;;;;;;2.10;1.33;;;32.30;53.20;;;;;;4668489;30;20041;-82
2022/08/02 11:45:53;;;;;;;2.65;1.02;;;32.00;50.50;;;;;;4668614;30;20128;-82
2022/08/02 11:48:39;;;;;;;3.67;1.25;;;32.00;50.20;;;;;;4669852;30;20059;-80
2022/08/02 11:51:09;;;;;;;2.17;1.20;;;32.20;50.10;;;;;;4669689;30;20217;-81
2022/08/02 11:53:53;;;;;;;3.45;1.17;;;32.40;50.90;;;;;;4670087;30;20034;-81
2022/08/02 11:56:26;;;;;;;2.60;1.30;;;32.70;49.50;;;;;;4669723;30;20641;-81
2022/08/02 11:59:04;;;;;;;3.72;1.48;;;33.10;48.80;;;;;;4669745;30;20060;-82
2022/08/02 12:01:31;;;;;;;2.28;1.15;;;33.70;50.00;;;;;;4669451;30;20054;-81
2022/08/02 12:03:59;;;;;;;2.42;1.15;;;34.40;48.30;;;;;;4669615;30;20224;-82
2022/08/02 12:06:29;;;;;;;3.50;1.10;;;34.40;46.80;;;;;;4669707;30;20431;-82
2022/08/02 12:09:05;;;;;;;1.63;1.00;;;34.50;46.10;;;;;;4669383;30;20038;-83
2022/08/02 12:11:31;;;;;;;2.30;1.33;;;34.40;46.70;;;;;;4668016;30;20327;-81
2022/08/02 12:13:58;;;;;;;3.40;1.50;;;34.20;46.40;;;;;;4669639;30;20167;-81
2022/08/02 12:19:18;;;;;;;1.10;1.00;;;34.60;46.80;;;;;;4669209;30;20305;-80
2022/08/02 12:21:45;;;;;;;4.97;1.45;;;33.90;46.10;;;;;;4669426;30;20042;-81
2022/08/02 12:24:12;;;;;;;2.67;1.42;;;32.90;47.20;;;;;;4667419;30;20042;-80
2022/08/02 12:26:45;;;;;;;4.95;1.48;;;31.90;47.60;;;;;;4669106;30;20598;-81
2022/08/02 12:29:11;;;;;;;2.47;1.40;;;31.90;47.80;;;;;;4669015;30;20239;-81
2022/08/02 12:31:42;;;;;;;2.78;1.45;;;32.10;48.50;;;;;;4667622;30;20050;-83
2022/08/02 12:34:15;;;;;;;2.60;1.50;;;32.80;48.60;;;;;;4669359;30;20050;-82
2022/08/02 12:36:42;;;;;;;2.42;1.30;;;33.90;47.30;;;;;;4669107;30;20052;-81
2022/08/02 12:39:12;;;;;;;2.55;1.45;;;34.90;46.10;;;;;;4667594;30;20321;-81
2022/08/02 12:41:38;;;;;;;3.72;1.65;;;35.90;45.80;;;;;;4668724;30;20757;-81
2022/08/02 12:44:13;;;;;;;4.93;2.17;;;36.70;45.80;;;;;;4669197;30;20030;-81
2022/08/02 12:46:38;;;;;;;3.80;2.20;;;37.10;42.80;;;;;;4673164;30;20366;-82
2022/08/02 12:49:15;;;;;;;3.38;1.50;;;37.00;43.20;;;;;;4672086;30;20057;-82
2022/08/02 12:51:41;;;;;;;3.28;1.90;;;36.10;43.50;;;;;;4671770;30;20541;-80
2022/08/02 12:54:19;;;;;;;3.08;1.65;;;35.30;44.30;;;;;;4668910;30;20246;-81
2022/08/02 12:56:47;;;;;;;3.33;1.80;;;34.90;44.10;;;;;;4668283;30;20074;-82
2022/08/02 12:59:13;;;;;;;2.28;1.55;;;34.50;44.70;;;;;;4667942;30;20511;-82
2022/08/02 13:01:39;;;;;;;3.92;2.17;;;33.70;44.70;;;;;;4667024;30;20050;-82
2022/08/02 13:04:05;;;;;;;4.18;2.20;;;33.10;46.10;;;;;;4669150;30;20049;-82